Kalliopi L — A8GS8 — position and weather

sailwx.info

Track history (hours):
 
Tides and Currents Weather Stations Pressure Air Temp Water Temp Dewpoint Dewpoint Depression Visibility Wind Speed Wind Dir Waves Ship Positions

Kalliopi L

Last reported at 2018-Jul-03 20:16 UTC. Time now 2018-Jul-17 17:16 UTC.
Position N 46°12' W 125°28'.
Warning: this ship's position is 13 days out of date.

Length 224 m; draft 13.1 m.

Type: Cargo ship. MMSI: 636012640.

Date/timePositionNaut miles runAvg speedWind from/ knotsBaromVisibWave heightAir tempDewpointWater temp
2018-Jul-03 20:16N 46°12' W 125°28'311.1
2018-Jul-03 20:00N 46°12' W 125°24'511.0
2018-Jul-03 19:30N 46°12' W 125°16'811.0
2018-Jul-03 18:49N 46°12' W 125°05'311.1
2018-Jul-03 18:30N 46°12' W 125°00'611.1
2018-Jul-03 18:00N 46°12' W 124°52'611.1
2018-Jul-03 17:30N 46°12' W 124°44'511.0
2018-Jul-03 17:00N 46°11' W 124°36'510.8
2018-Jul-03 16:30N 46°11' W 124°29'510.2
2018-Jul-03 16:00N 46°11' W 124°21'510.5
2018-Jul-03 15:30N 46°11' W 124°14'4 7.6
2018-Jul-03 15:00N 46°12' W 124°09'5 9.3
2018-Jul-03 14:30N 46°16' W 124°03'510.7
2018-Jul-03 14:00N 46°13' W 123°57'5 9.1
2018-Jul-03 13:30N 46°12' W 123°51'4 8.8
2018-Jul-03 13:00N 46°13' W 123°45'5 9.4
2018-Jul-03 12:30N 46°16' W 123°39'5 9.4
2018-Jul-03 12:00N 46°16' W 123°32'4 7.9
2018-Jul-03 11:30N 46°15' W 123°26'4 8.6
2018-Jul-03 11:00N 46°11' W 123°25'4 8.1
2018-Jul-03 10:30N 46°09' W 123°20'5 9.7
2018-Jul-03 10:01N 46°10' W 123°14'6 9.3
2018-Jul-03 09:22N 46°10' W 123°05'410.2
2018-Jul-03 09:00N 46°08' W 123°00'4 8.7
2018-Jul-03 08:30N 46°06' W 122°55'4 8.2
2018-Jul-03 08:00N 46°02' W 122°53'0 0.5
2018-Jul-03 07:29N 46°02' W 122°53'0 0.1
2018-Jul-03 06:56N 46°02' W 122°53'0 0.0
2018-Jul-03 06:26N 46°02' W 122°53'0 0.0
2018-Jul-03 05:59N 46°02' W 122°53'0 0.0
2018-Jul-03 05:29N 46°02' W 122°53'0 0.0
2018-Jul-03 04:59N 46°02' W 122°53'0 0.0
2018-Jul-03 04:26N 46°02' W 122°53'0 0.1
2018-Jul-03 03:56N 46°02' W 122°53'0 0.1
2018-Jul-03 03:29N 46°02' W 122°53'0 0.0
2018-Jul-03 03:00N 46°02' W 122°53'0 0.0
2018-Jul-03 02:25N 46°02' W 122°53'0 0.0
2018-Jul-03 02:01N 46°02' W 122°53'0 0.1
2018-Jul-03 01:30N 46°02' W 122°53'3 4.0
2018-Jul-03 00:46N 46°04' W 122°53'1 4.8
2018-Jul-03 00:30N 46°05' W 122°55'1 2.0
2018-Jul-02 23:52N 46°06' W 122°56'0 0.1
2018-Jul-02 23:25N 46°06' W 122°56'0 0.1
2018-Jul-02 22:55N 46°06' W 122°56'0 0.1
2018-Jul-02 22:28N 46°06' W 122°56'0 0.1
2018-Jul-02 21:58N 46°06' W 122°56'0 0.0
2018-Jul-02 21:28N 46°06' W 122°56'0 0.0
2018-Jul-02 20:58N 46°06' W 122°56'0 0.0
2018-Jul-02 20:28N 46°06' W 122°56'0 0.0
2018-Jul-02 19:43N 46°06' W 122°56'0 0.0
2018-Jul-02 19:30N 46°06' W 122°56'0 0.0
2018-Jul-02 19:00N 46°06' W 122°56'0 0.0
2018-Jul-02 18:30N 46°06' W 122°56'0 0.0
2018-Jul-02 18:00N 46°06' W 122°56'0 0.0
2018-Jul-02 17:30N 46°06' W 122°56'0 0.1
2018-Jul-02 17:00N 46°06' W 122°56'0 0.1
2018-Jul-02 16:30N 46°06' W 122°56'0 0.0
2018-Jul-02 16:00N 46°06' W 122°56'0 0.0
2018-Jul-02 15:30N 46°06' W 122°56'0 0.0
2018-Jul-02 15:00N 46°06' W 122°56'0 0.0
2018-Jul-02 14:30N 46°06' W 122°56'0 0.1
2018-Jul-02 14:00N 46°06' W 122°56'0 0.0
2018-Jul-02 13:16N 46°06' W 122°56'0 0.2
2018-Jul-02 13:00N 46°06' W 122°56'0 0.0
2018-Jul-02 12:30N 46°06' W 122°56'0 0.0
2018-Jul-02 12:00N 46°06' W 122°56'0 0.0
2018-Jul-02 11:30N 46°06' W 122°56'0 0.0
2018-Jul-02 11:00N 46°06' W 122°56'0 0.0
2018-Jul-02 10:30N 46°06' W 122°56'0 0.0
2018-Jul-02 10:00N 46°06' W 122°56'0 0.0
2018-Jul-02 09:30N 46°06' W 122°56'0 0.1
2018-Jul-02 09:00N 46°06' W 122°56'0 0.0
2018-Jul-02 08:30N 46°06' W 122°56'0 0.1
2018-Jul-02 08:00N 46°06' W 122°56'0 0.0
2018-Jul-02 07:30N 46°06' W 122°56'0 0.1
2018-Jul-02 06:59N 46°06' W 122°56'0 0.1
2018-Jul-02 06:30N 46°06' W 122°56'0 0.0
2018-Jul-02 06:00N 46°06' W 122°56'0 0.1
2018-Jul-02 05:30N 46°06' W 122°56'0 0.0
2018-Jul-02 05:00N 46°06' W 122°56'0 0.0
2018-Jul-02 04:30N 46°06' W 122°56'0 0.0
2018-Jul-02 04:00N 46°06' W 122°56'0 0.0
2018-Jul-02 03:30N 46°06' W 122°56'0 0.0
2018-Jul-02 03:00N 46°06' W 122°56'0 0.0
2018-Jul-02 02:30N 46°06' W 122°56'0 0.0
2018-Jul-02 02:00N 46°06' W 122°56'0 0.0
2018-Jul-02 01:30N 46°06' W 122°56'0 0.0
2018-Jul-02 01:00N 46°06' W 122°56'0 0.0
2018-Jul-02 00:30N 46°06' W 122°56'0 0.0
2018-Jul-02 00:00N 46°06' W 122°56'0 0.0
2018-Jul-01 23:30N 46°06' W 122°56'0 0.0
2018-Jul-01 23:00N 46°06' W 122°56'0 0.0
2018-Jul-01 22:30N 46°06' W 122°56'0 0.0
2018-Jul-01 22:00N 46°06' W 122°56'0 0.0
2018-Jul-01 21:30N 46°06' W 122°56'0 0.0
2018-Jul-01 21:00N 46°06' W 122°56'0 0.0
2018-Jul-01 20:30N 46°06' W 122°56'0 0.0
2018-Jul-01 20:00N 46°06' W 122°56'0 0.0
2018-Jul-01 19:19N 46°06' W 122°56'0 0.0
2018-Jul-01 19:00N 46°06' W 122°56'0 0.0
2018-Jul-01 18:25N 46°06' W 122°56'0 0.0
2018-Jul-01 18:00N 46°06' W 122°56'0 0.0
2018-Jul-01 17:30N 46°06' W 122°56'0 0.0
2018-Jul-01 17:00N 46°06' W 122°56'0 0.0
2018-Jul-01 16:30N 46°06' W 122°56'0 0.0
2018-Jul-01 16:00N 46°06' W 122°56'0 0.0
2018-Jul-01 15:30N 46°06' W 122°56'0 0.0
2018-Jul-01 15:00N 46°06' W 122°56'0 0.0
2018-Jul-01 14:30N 46°06' W 122°56'0 0.0
2018-Jul-01 14:00N 46°06' W 122°56'0 0.0
2018-Jul-01 13:26N 46°06' W 122°56'0 0.0
2018-Jul-01 13:00N 46°06' W 122°56'0 0.0
2018-Jul-01 12:30N 46°06' W 122°56'0 0.0
2018-Jul-01 12:01N 46°06' W 122°56'0 0.0
2018-Jul-01 11:30N 46°06' W 122°56'0 0.0
2018-Jul-01 11:00N 46°06' W 122°56'0 0.0
2018-Jul-01 10:30N 46°06' W 122°56'0 0.0
2018-Jul-01 10:00N 46°06' W 122°56'0 0.0
2018-Jul-01 09:30N 46°06' W 122°56'0 0.0
2018-Jul-01 09:01N 46°06' W 122°56'0 0.0
2018-Jul-01 08:30N 46°06' W 122°56'0 0.0
2018-Jul-01 08:00N 46°06' W 122°56'0 0.0
2018-Jul-01 07:30N 46°06' W 122°56'0 0.0
2018-Jul-01 06:59N 46°06' W 122°56'0 0.0
2018-Jul-01 06:30N 46°06' W 122°56'0 0.0
2018-Jul-01 06:00N 46°06' W 122°56'0 0.0
2018-Jul-01 05:22N 46°06' W 122°56'0 0.0
2018-Jul-01 04:54N 46°06' W 122°56'0 0.0
2018-Jul-01 04:30N 46°06' W 122°56'0 0.0
2018-Jul-01 04:00N 46°06' W 122°56'0 0.0
2018-Jul-01 03:30N 46°06' W 122°56'0 0.0
2018-Jul-01 03:00N 46°06' W 122°56'0 0.0
2018-Jul-01 02:27N 46°06' W 122°56'0 0.0
2018-Jul-01 02:00N 46°06' W 122°56'0 0.0
2018-Jul-01 01:30N 46°06' W 122°56'0 0.0
2018-Jul-01 01:00N 46°06' W 122°56'0 0.0
2018-Jul-01 00:30N 46°06' W 122°56'0 0.0
2018-Jun-30 23:47N 46°06' W 122°56'0 0.0
2018-Jun-30 23:31N 46°06' W 122°56'0 0.0
2018-Jun-30 23:00N 46°06' W 122°56'0 0.0
2018-Jun-30 22:30N 46°06' W 122°56'0 0.0
2018-Jun-30 22:00N 46°06' W 122°56'0 0.0
2018-Jun-30 21:30N 46°06' W 122°56'0 0.0
2018-Jun-30 21:00N 46°06' W 122°56'0 0.0
2018-Jun-30 20:31N 46°06' W 122°56'0 0.0
2018-Jun-30 20:00N 46°06' W 122°56'0 0.0
2018-Jun-30 19:29N 46°06' W 122°56'0 0.0
2018-Jun-30 19:00N 46°06' W 122°56'0 0.0
2018-Jun-30 18:30N 46°06' W 122°56'0 0.0
2018-Jun-30 18:00N 46°06' W 122°56'0 0.0
2018-Jun-30 17:30N 46°06' W 122°56'0 0.0
2018-Jun-30 17:00N 46°06' W 122°56'0 0.0
2018-Jun-30 16:30N 46°06' W 122°56'0 0.0
2018-Jun-30 16:00N 46°06' W 122°56'0 0.0
2018-Jun-30 15:30N 46°06' W 122°56'0 0.0
2018-Jun-30 15:00N 46°06' W 122°56'0 0.0
2018-Jun-30 14:30N 46°06' W 122°56'0 0.0
2018-Jun-30 14:00N 46°06' W 122°56'0 0.0
2018-Jun-30 13:30N 46°06' W 122°56'0 0.1
2018-Jun-30 13:00N 46°06' W 122°56'1 2.0
2018-Jun-30 12:30N 46°06' W 122°58'4 7.6
2018-Jun-30 12:00N 46°09' W 123°02'611.2
2018-Jun-30 11:30N 46°11' W 123°09'611.9
2018-Jun-30 11:00N 46°09' W 123°17'510.5
2018-Jun-30 10:30N 46°10' W 123°24'611.3
2018-Jun-30 10:00N 46°15' W 123°27'611.4
2018-Jun-30 09:30N 46°15' W 123°35'611.0
2018-Jun-30 09:00N 46°14' W 123°43'3 6.7
2018-Jun-30 08:31N 46°13' W 123°47'0 0.1
2018-Jun-30 08:00N 46°13' W 123°47'0 0.0
2018-Jun-30 07:30N 46°13' W 123°47'0 0.0
2018-Jun-30 06:57N 46°13' W 123°47'0 0.1
2018-Jun-30 06:30N 46°13' W 123°47'0 0.0
2018-Jun-30 06:00N 46°13' W 123°47'0 0.2
2018-Jun-30 05:27N 46°13' W 123°47'0 0.1
2018-Jun-30 05:00N 46°13' W 123°48'0 0.1
2018-Jun-30 04:30N 46°13' W 123°48'0 0.0
2018-Jun-30 04:00N 46°13' W 123°48'0 0.0
2018-Jun-30 03:30N 46°13' W 123°48'0 0.0
2018-Jun-30 02:48N 46°13' W 123°48'0 0.0
2018-Jun-30 02:30N 46°13' W 123°48'0 0.0
2018-Jun-30 02:00N 46°13' W 123°48'0 0.0
2018-Jun-30 01:09N 46°13' W 123°48'0 0.1
2018-Jun-30 00:42N 46°13' W 123°48'0 0.3
2018-Jun-30 00:24N 46°13' W 123°47'0 0.2
2018-Jun-30 00:00N 46°13' W 123°47'0 0.2
2018-Jun-29 23:30N 46°13' W 123°47'0 0.0
2018-Jun-29 22:57N 46°13' W 123°47'0 0.1
2018-Jun-29 22:21N 46°13' W 123°47'0 0.0
2018-Jun-29 22:00N 46°13' W 123°47'0 0.0
2018-Jun-29 21:30N 46°13' W 123°47'0 0.0
2018-Jun-29 20:57N 46°13' W 123°47'0 0.0
2018-Jun-29 20:30N 46°13' W 123°47'0 0.0
2018-Jun-29 20:00N 46°13' W 123°47'0 0.0
2018-Jun-29 19:27N 46°13' W 123°47'0 0.1
2018-Jun-29 19:00N 46°13' W 123°47'0 0.3
2018-Jun-29 18:30N 46°13' W 123°47'0 0.2
2018-Jun-29 18:00N 46°13' W 123°48'0 0.0
2018-Jun-29 17:15N 46°13' W 123°48'0 0.0
2018-Jun-29 16:48N 46°13' W 123°48'0 0.0
2018-Jun-29 16:30N 46°13' W 123°48'0 0.0
2018-Jun-29 15:45N 46°13' W 123°48'0 0.0
2018-Jun-29 15:30N 46°13' W 123°48'0 0.0
2018-Jun-29 14:57N 46°13' W 123°48'0 0.1
2018-Jun-29 14:30N 46°13' W 123°48'0 0.0
2018-Jun-29 14:00N 46°13' W 123°48'0 0.0
2018-Jun-29 13:30N 46°13' W 123°48'0 0.0
2018-Jun-29 13:00N 46°13' W 123°48'0 0.0
2018-Jun-29 12:30N 46°13' W 123°48'0 0.0
2018-Jun-29 12:00N 46°13' W 123°48'0 0.0
2018-Jun-29 11:30N 46°13' W 123°48'0 0.0
2018-Jun-29 11:00N 46°13' W 123°48'0 0.1
2018-Jun-29 10:30N 46°13' W 123°48'0 0.4
2018-Jun-29 10:00N 46°13' W 123°47'0 0.1
2018-Jun-29 09:30N 46°13' W 123°47'0 0.0
2018-Jun-29 09:00N 46°13' W 123°47'0 0.0
2018-Jun-29 08:30N 46°13' W 123°47'0 0.1
2018-Jun-29 07:39N 46°13' W 123°47'0 0.0
2018-Jun-29 07:30N 46°13' W 123°47'0 0.0
2018-Jun-29 06:57N 46°13' W 123°47'0 0.1
2018-Jun-29 06:30N 46°13' W 123°47'0 0.1
2018-Jun-29 06:00N 46°13' W 123°47'0 0.1
2018-Jun-29 05:30N 46°13' W 123°47'0 0.2
2018-Jun-29 05:00N 46°13' W 123°47'0 0.2
2018-Jun-29 04:30N 46°13' W 123°48'0 0.1
2018-Jun-29 04:00N 46°13' W 123°48'0 0.0
2018-Jun-29 03:30N 46°13' W 123°48'0 0.0
2018-Jun-29 03:00N 46°13' W 123°48'0 0.0
2018-Jun-29 02:30N 46°13' W 123°48'0 0.0
2018-Jun-29 01:57N 46°13' W 123°48'0 0.0
2018-Jun-29 01:30N 46°13' W 123°48'0 0.0
2018-Jun-29 01:00N 46°13' W 123°48'0 0.0
2018-Jun-29 00:30N 46°13' W 123°48'0 0.0
2018-Jun-29 00:00N 46°13' W 123°48'0 0.2
2018-Jun-28 23:30N 46°13' W 123°47'0 0.2
2018-Jun-28 23:00N 46°13' W 123°47'0 0.1
2018-Jun-28 22:30N 46°13' W 123°47'0 0.1
2018-Jun-28 22:00N 46°13' W 123°47'0 0.1
2018-Jun-28 21:30N 46°13' W 123°47'0 0.0
2018-Jun-28 21:00N 46°13' W 123°47'0 0.0
2018-Jun-28 20:30N 46°13' W 123°47'0 0.0
2018-Jun-28 20:00N 46°13' W 123°47'0 0.0
2018-Jun-28 19:12N 46°13' W 123°47'0 0.0
2018-Jun-28 19:00N 46°13' W 123°47'0 0.0
2018-Jun-28 18:21N 46°13' W 123°47'0 0.1
2018-Jun-28 17:57N 46°13' W 123°47'0 0.4
2018-Jun-28 17:27N 46°13' W 123°47'0 0.1
2018-Jun-28 17:00N 46°13' W 123°48'0 0.1
2018-Jun-28 16:30N 46°13' W 123°48'0 0.0
2018-Jun-28 16:00N 46°13' W 123°48'0 0.0
2018-Jun-28 15:30N 46°13' W 123°48'0 0.0
2018-Jun-28 14:57N 46°13' W 123°48'0 0.0
2018-Jun-28 14:30N 46°13' W 123°48'0 0.0
2018-Jun-28 14:00N 46°13' W 123°48'0 0.0
2018-Jun-28 13:30N 46°13' W 123°48'0 0.0
2018-Jun-28 13:00N 46°13' W 123°48'0 0.0
2018-Jun-28 12:30N 46°13' W 123°48'0 0.0
2018-Jun-28 12:00N 46°13' W 123°48'0 0.0
2018-Jun-28 11:27N 46°13' W 123°48'0 0.0
2018-Jun-28 11:00N 46°13' W 123°48'0 0.1
2018-Jun-28 10:30N 46°13' W 123°48'0 0.1
2018-Jun-28 10:00N 46°13' W 123°48'0 0.3
2018-Jun-28 09:27N 46°13' W 123°47'0 0.2
2018-Jun-28 09:00N 46°13' W 123°47'0 0.1
2018-Jun-28 08:27N 46°13' W 123°47'0 0.1
2018-Jun-28 08:00N 46°13' W 123°47'0 0.0
2018-Jun-28 07:18N 46°13' W 123°47'0 0.0
2018-Jun-28 06:57N 46°13' W 123°47'0 0.0
2018-Jun-28 06:30N 46°13' W 123°47'0 0.0
2018-Jun-28 06:00N 46°13' W 123°47'0 0.0
2018-Jun-28 05:24N 46°13' W 123°47'0 0.0
2018-Jun-28 05:00N 46°13' W 123°47'0 0.2
2018-Jun-28 04:30N 46°13' W 123°47'0 0.2
2018-Jun-28 04:00N 46°13' W 123°47'0 0.1
2018-Jun-28 03:30N 46°13' W 123°48'0 0.1
2018-Jun-28 02:57N 46°13' W 123°48'0 0.0
2018-Jun-28 02:30N 46°13' W 123°48'0 0.0
2018-Jun-28 02:00N 46°13' W 123°48'0 0.0
2018-Jun-28 01:30N 46°13' W 123°48'0 0.0
2018-Jun-28 00:51N 46°13' W 123°48'0 0.0
2018-Jun-28 00:30N 46°13' W 123°48'0 0.0
2018-Jun-28 00:00N 46°13' W 123°48'0 0.0
2018-Jun-27 23:27N 46°13' W 123°48'0 0.0
2018-Jun-27 23:00N 46°13' W 123°48'0 0.2
2018-Jun-27 22:27N 46°13' W 123°47'0 0.1
2018-Jun-27 22:00N 46°13' W 123°47'0 0.2
2018-Jun-27 21:27N 46°13' W 123°47'0 0.0
2018-Jun-27 21:00N 46°13' W 123°47'0 0.1
2018-Jun-27 20:27N 46°13' W 123°47'0 0.0
2018-Jun-27 20:00N 46°13' W 123°47'0 0.0
2018-Jun-27 19:30N 46°13' W 123°47'0 0.0
2018-Jun-27 19:00N 46°13' W 123°47'0 0.0
2018-Jun-27 18:30N 46°13' W 123°47'0 0.0
2018-Jun-27 18:00N 46°13' W 123°47'0 0.4
2018-Jun-27 17:30N 46°13' W 123°48'0 0.2
2018-Jun-27 17:00N 46°13' W 123°48'0 0.1
2018-Jun-27 16:12N 46°13' W 123°48'0 0.0
2018-Jun-27 16:00N 46°13' W 123°48'0 0.0
2018-Jun-27 15:15N 46°13' W 123°48'0 0.0
2018-Jun-27 15:00N 46°13' W 123°48'0 0.0
2018-Jun-27 14:27N 46°13' W 123°48'0 0.0
2018-Jun-27 14:00N 46°13' W 123°48'0 0.0
2018-Jun-27 13:30N 46°13' W 123°48'0 0.0
2018-Jun-27 13:00N 46°13' W 123°48'0 0.0
2018-Jun-27 12:30N 46°13' W 123°48'0 0.0
2018-Jun-27 11:57N 46°13' W 123°48'0 0.0
2018-Jun-27 11:30N 46°13' W 123°48'0 0.0
2018-Jun-27 10:57N 46°13' W 123°48'0 0.0
2018-Jun-27 10:30N 46°13' W 123°48'0 0.0
2018-Jun-27 10:00N 46°13' W 123°48'0 0.1
2018-Jun-27 09:27N 46°13' W 123°48'0 0.0
2018-Jun-27 08:57N 46°13' W 123°48'0 0.3
2018-Jun-27 08:30N 46°13' W 123°47'0 0.2
2018-Jun-27 08:00N 46°13' W 123°47'0 0.1
2018-Jun-27 07:30N 46°13' W 123°47'0 0.0
2018-Jun-27 06:54N 46°13' W 123°47'0 0.0
2018-Jun-27 06:30N 46°13' W 123°47'0 0.1
2018-Jun-27 05:42N 46°13' W 123°47'0 0.2
2018-Jun-27 05:30N 46°13' W 123°47'0 0.1
2018-Jun-27 05:00N 46°13' W 123°47'0 0.0
2018-Jun-27 04:30N 46°13' W 123°47'0 0.2
2018-Jun-27 03:48N 46°13' W 123°47'0 0.1
2018-Jun-27 03:30N 46°13' W 123°47'0 0.1
2018-Jun-27 03:00N 46°13' W 123°48'0 0.0
2018-Jun-27 02:30N 46°13' W 123°48'0 0.1
2018-Jun-27 02:00N 46°13' W 123°48'0 0.0
2018-Jun-27 01:30N 46°13' W 123°48'0 0.0
2018-Jun-27 01:00N 46°13' W 123°48'0 0.1
2018-Jun-27 00:18N 46°13' W 123°48'0 0.1
2018-Jun-27 00:00N 46°13' W 123°48'0 0.0
2018-Jun-26 23:30N 46°13' W 123°48'0 0.1
2018-Jun-26 23:00N 46°13' W 123°48'0 0.0
2018-Jun-26 22:30N 46°13' W 123°48'0 0.2
2018-Jun-26 21:57N 46°13' W 123°47'0 0.2
2018-Jun-26 21:24N 46°13' W 123°47'0 0.1
2018-Jun-26 20:54N 46°13' W 123°47'0 0.1
2018-Jun-26 20:30N 46°13' W 123°47'0 0.0
2018-Jun-26 20:00N 46°13' W 123°47'0 0.0
2018-Jun-26 19:30N 46°13' W 123°47'0 0.0
2018-Jun-26 19:00N 46°13' W 123°47'0 0.0
2018-Jun-26 18:27N 46°13' W 123°47'0 0.0
2018-Jun-26 17:54N 46°13' W 123°47'0 0.1
2018-Jun-26 17:30N 46°13' W 123°47'0 0.2
2018-Jun-26 16:30N 46°13' W 123°48'0 0.1
2018-Jun-26 15:42N 46°13' W 123°48'0 0.0
2018-Jun-26 15:30N 46°13' W 123°48'0 0.0
2018-Jun-26 14:51N 46°13' W 123°48'0 0.0
2018-Jun-26 14:28N 46°13' W 123°48'0 0.0
2018-Jun-26 14:00N 46°13' W 123°48'0 0.0
2018-Jun-26 13:30N 46°13' W 123°48'0 0.0
2018-Jun-26 13:00N 46°13' W 123°48'0 0.1
2018-Jun-26 12:30N 46°13' W 123°48'0 0.0
2018-Jun-26 12:00N 46°13' W 123°48'0 0.0
2018-Jun-26 11:27N 46°13' W 123°48'0 0.0
2018-Jun-26 11:00N 46°13' W 123°48'0 0.0
2018-Jun-26 10:27N 46°13' W 123°48'0 0.0
2018-Jun-26 10:00N 46°13' W 123°48'0 0.0
2018-Jun-26 09:30N 46°13' W 123°48'0 0.0
2018-Jun-26 09:00N 46°13' W 123°48'0 0.1
2018-Jun-26 08:30N 46°13' W 123°48'0 0.4
2018-Jun-26 08:00N 46°13' W 123°47'0 0.2
2018-Jun-26 07:30N 46°13' W 123°47'0 0.0
2018-Jun-26 06:57N 46°13' W 123°47'0 0.1
2018-Jun-26 06:30N 46°13' W 123°47'0 0.0
2018-Jun-26 05:54N 46°13' W 123°47'0 0.0
2018-Jun-26 05:27N 46°13' W 123°47'0 0.0
2018-Jun-26 05:00N 46°13' W 123°47'0 0.0
2018-Jun-26 04:30N 46°13' W 123°47'0 0.1
2018-Jun-26 04:00N 46°13' W 123°47'0 0.0
2018-Jun-26 03:24N 46°13' W 123°47'0 0.3
2018-Jun-26 03:00N 46°13' W 123°47'0 0.2
2018-Jun-26 02:27N 46°13' W 123°47'0 0.1
2018-Jun-26 01:57N 46°13' W 123°48'0 0.1
2018-Jun-26 01:30N 46°13' W 123°48'0 0.0
2018-Jun-26 01:00N 46°13' W 123°48'0 0.0
2018-Jun-26 00:30N 46°13' W 123°48'0 0.0
2018-Jun-26 00:00N 46°13' W 123°48'0 0.0
2018-Jun-25 23:27N 46°13' W 123°48'0 0.0
2018-Jun-25 23:00N 46°13' W 123°48'0 0.1
2018-Jun-25 22:30N 46°13' W 123°48'0 0.0
2018-Jun-25 22:00N 46°13' W 123°48'0 0.3
2018-Jun-25 21:24N 46°13' W 123°47'0 0.2
2018-Jun-25 21:00N 46°13' W 123°47'0 0.1
2018-Jun-25 19:48N 46°13' W 123°47'0 0.0
2018-Jun-25 19:18N 46°13' W 123°47'0 0.0
2018-Jun-25 19:00N 46°13' W 123°47'0 0.0
2018-Jun-25 18:30N 46°13' W 123°47'0 0.0
2018-Jun-25 18:00N 46°13' W 123°47'0 0.0
2018-Jun-25 17:30N 46°13' W 123°47'0 0.0
2018-Jun-25 17:00N 46°13' W 123°47'0 0.0
2018-Jun-25 16:30N 46°13' W 123°47'0 0.1
2018-Jun-25 15:57N 46°13' W 123°47'0 0.2
2018-Jun-25 15:00N 46°13' W 123°48'0 0.0
2018-Jun-25 14:30N 46°13' W 123°48'0 0.1
2018-Jun-25 14:00N 46°13' W 123°48'0 0.0
2018-Jun-25 13:30N 46°13' W 123°48'0 0.0
2018-Jun-25 13:00N 46°13' W 123°48'0 0.0
2018-Jun-25 12:30N 46°13' W 123°48'0 0.0
2018-Jun-25 12:00N 46°13' W 123°48'0 0.0
2018-Jun-25 11:30N 46°13' W 123°48'0 0.0
2018-Jun-25 10:57N 46°13' W 123°48'0 0.0
2018-Jun-25 10:30N 46°13' W 123°48'0 0.0
2018-Jun-25 10:00N 46°13' W 123°48'0 0.0
2018-Jun-25 09:27N 46°13' W 123°48'0 0.0
2018-Jun-25 09:00N 46°13' W 123°48'0 0.1
2018-Jun-25 08:30N 46°13' W 123°48'0 0.1
2018-Jun-25 08:00N 46°13' W 123°48'0 0.3
2018-Jun-25 07:27N 46°13' W 123°47'0 0.3
2018-Jun-25 06:57N 46°13' W 123°47'0 0.1
2018-Jun-25 06:30N 46°13' W 123°47'0 0.1
2018-Jun-25 05:54N 46°13' W 123°47'0 0.1
2018-Jun-25 05:30N 46°13' W 123°47'0 0.1
2018-Jun-25 05:00N 46°13' W 123°47'0 0.1
2018-Jun-25 04:30N 46°13' W 123°47'0 0.0
2018-Jun-25 03:57N 46°13' W 123°47'0 0.1
2018-Jun-25 03:30N 46°13' W 123°47'0 0.1
2018-Jun-25 03:00N 46°13' W 123°47'0 0.1
2018-Jun-25 02:30N 46°13' W 123°47'0 0.3
2018-Jun-25 02:00N 46°13' W 123°47'0 0.2
2018-Jun-25 01:15N 46°13' W 123°48'0 0.0
2018-Jun-25 00:57N 46°13' W 123°48'0 0.0
2018-Jun-25 00:30N 46°13' W 123°48'0 0.0
2018-Jun-25 00:00N 46°13' W 123°48'0 0.1
2018-Jun-24 23:30N 46°13' W 123°48'0 0.1
2018-Jun-24 23:00N 46°13' W 123°48'0 0.1
2018-Jun-24 22:30N 46°13' W 123°48'0 0.0
2018-Jun-24 21:57N 46°13' W 123°48'0 0.0
2018-Jun-24 21:27N 46°13' W 123°48'0 0.0
2018-Jun-24 21:00N 46°13' W 123°48'0 0.3
2018-Jun-24 20:30N 46°13' W 123°47'0 0.3
2018-Jun-24 20:00N 46°13' W 123°47'0 0.1
2018-Jun-24 19:30N 46°13' W 123°47'0 0.0
2018-Jun-24 19:00N 46°13' W 123°47'0 0.0
2018-Jun-24 18:30N 46°13' W 123°47'0 0.0
2018-Jun-24 18:00N 46°13' W 123°47'0 0.0
2018-Jun-24 17:30N 46°13' W 123°47'0 0.0
2018-Jun-24 17:00N 46°13' W 123°47'0 0.1
2018-Jun-24 16:30N 46°13' W 123°47'0 0.3
2018-Jun-24 15:57N 46°13' W 123°47'0 0.1
2018-Jun-24 15:30N 46°13' W 123°48'0 0.0
2018-Jun-24 15:00N 46°13' W 123°48'0 0.1
2018-Jun-24 14:30N 46°13' W 123°48'0 0.0
2018-Jun-24 14:00N 46°13' W 123°48'0 0.0
2018-Jun-24 13:30N 46°13' W 123°48'0 0.0
2018-Jun-24 13:00N 46°13' W 123°48'0 0.0
2018-Jun-24 12:30N 46°13' W 123°48'0 0.0
2018-Jun-24 12:00N 46°13' W 123°48'0 0.0
2018-Jun-24 11:30N 46°13' W 123°48'0 0.0
2018-Jun-24 10:57N 46°13' W 123°48'0 0.1
2018-Jun-24 10:30N 46°13' W 123°48'0 0.0
2018-Jun-24 09:57N 46°13' W 123°48'0 0.0
2018-Jun-24 09:30N 46°13' W 123°48'0 0.0
2018-Jun-24 09:00N 46°13' W 123°48'0 0.0
2018-Jun-24 08:30N 46°13' W 123°48'0 0.0
2018-Jun-24 07:57N 46°13' W 123°48'0 0.0
2018-Jun-24 07:30N 46°13' W 123°48'0 0.2
2018-Jun-24 06:42N 46°13' W 123°47'0 0.2
2018-Jun-24 06:30N 46°13' W 123°47'0 0.3
2018-Jun-24 06:00N 46°13' W 123°47'0 0.1
2018-Jun-24 05:27N 46°13' W 123°47'0 0.1
2018-Jun-24 05:00N 46°13' W 123°47'0 0.0
2018-Jun-24 04:27N 46°13' W 123°47'0 0.0
2018-Jun-24 04:00N 46°13' W 123°47'0 0.0
2018-Jun-24 03:27N 46°13' W 123°47'0 0.0
2018-Jun-24 03:00N 46°13' W 123°47'0 0.0
2018-Jun-24 02:12N 46°13' W 123°47'0 0.0
2018-Jun-24 02:00N 46°13' W 123°47'0 0.1
2018-Jun-24 01:12N 46°13' W 123°47'0 0.4
2018-Jun-24 01:00N 46°13' W 123°47'0 0.2
2018-Jun-24 00:30N 46°13' W 123°48'0 0.1
2018-Jun-24 00:00N 46°13' W 123°48'0 0.0
2018-Jun-23 23:30N 46°13' W 123°48'0 0.0
2018-Jun-23 22:48N 46°13' W 123°48'0 0.0
2018-Jun-23 22:30N 46°13' W 123°48'0 0.0
2018-Jun-23 22:00N 46°13' W 123°48'0 0.0
2018-Jun-23 21:30N 46°13' W 123°48'0 0.0
2018-Jun-23 20:54N 46°13' W 123°48'0 0.0
2018-Jun-23 20:30N 46°13' W 123°48'  
Track history (hours):
 
Tides and Currents Weather Stations Pressure Air Temp Water Temp Dewpoint Dewpoint Depression Visibility Wind Speed Wind Dir Waves Ship Positions

Kalliopi L

Last reported at 2018-Jul-03 20:16 UTC. Time now 2018-Jul-17 17:16 UTC.
Position N 46°12' W 125°28'.
Warning: this ship's position is 13 days out of date.

Length 224 m; draft 13.1 m.

Type: Cargo ship. MMSI: 636012640.

Date/timePositionNaut miles runAvg speedWind from/ knotsBaromVisibWave heightAir tempDewpointWater temp
2018-Jul-03 20:16N 46°12' W 125°28'311.1
2018-Jul-03 20:00N 46°12' W 125°24'511.0
2018-Jul-03 19:30N 46°12' W 125°16'811.0
2018-Jul-03 18:49N 46°12' W 125°05'311.1
2018-Jul-03 18:30N 46°12' W 125°00'611.1
2018-Jul-03 18:00N 46°12' W 124°52'611.1
2018-Jul-03 17:30N 46°12' W 124°44'511.0
2018-Jul-03 17:00N 46°11' W 124°36'510.8
2018-Jul-03 16:30N 46°11' W 124°29'510.2
2018-Jul-03 16:00N 46°11' W 124°21'510.5
2018-Jul-03 15:30N 46°11' W 124°14'4 7.6
2018-Jul-03 15:00N 46°12' W 124°09'5 9.3
2018-Jul-03 14:30N 46°16' W 124°03'510.7
2018-Jul-03 14:00N 46°13' W 123°57'5 9.1
2018-Jul-03 13:30N 46°12' W 123°51'4 8.8
2018-Jul-03 13:00N 46°13' W 123°45'5 9.4
2018-Jul-03 12:30N 46°16' W 123°39'5 9.4
2018-Jul-03 12:00N 46°16' W 123°32'4 7.9
2018-Jul-03 11:30N 46°15' W 123°26'4 8.6
2018-Jul-03 11:00N 46°11' W 123°25'4 8.1
2018-Jul-03 10:30N 46°09' W 123°20'5 9.7
2018-Jul-03 10:01N 46°10' W 123°14'6 9.3
2018-Jul-03 09:22N 46°10' W 123°05'410.2
2018-Jul-03 09:00N 46°08' W 123°00'4 8.7
2018-Jul-03 08:30N 46°06' W 122°55'4 8.2
2018-Jul-03 08:00N 46°02' W 122°53'0 0.5
2018-Jul-03 07:29N 46°02' W 122°53'0 0.1
2018-Jul-03 06:56N 46°02' W 122°53'0 0.0
2018-Jul-03 06:26N 46°02' W 122°53'0 0.0
2018-Jul-03 05:59N 46°02' W 122°53'0 0.0
2018-Jul-03 05:29N 46°02' W 122°53'0 0.0
2018-Jul-03 04:59N 46°02' W 122°53'0 0.0
2018-Jul-03 04:26N 46°02' W 122°53'0 0.1
2018-Jul-03 03:56N 46°02' W 122°53'0 0.1
2018-Jul-03 03:29N 46°02' W 122°53'0 0.0
2018-Jul-03 03:00N 46°02' W 122°53'0 0.0
2018-Jul-03 02:25N 46°02' W 122°53'0 0.0
2018-Jul-03 02:01N 46°02' W 122°53'0 0.1
2018-Jul-03 01:30N 46°02' W 122°53'3 4.0
2018-Jul-03 00:46N 46°04' W 122°53'1 4.8
2018-Jul-03 00:30N 46°05' W 122°55'1 2.0
2018-Jul-02 23:52N 46°06' W 122°56'0 0.1
2018-Jul-02 23:25N 46°06' W 122°56'0 0.1
2018-Jul-02 22:55N 46°06' W 122°56'0 0.1
2018-Jul-02 22:28N 46°06' W 122°56'0 0.1
2018-Jul-02 21:58N 46°06' W 122°56'0 0.0
2018-Jul-02 21:28N 46°06' W 122°56'0 0.0
2018-Jul-02 20:58N 46°06' W 122°56'0 0.0
2018-Jul-02 20:28N 46°06' W 122°56'0 0.0
2018-Jul-02 19:43N 46°06' W 122°56'0 0.0
2018-Jul-02 19:30N 46°06' W 122°56'0 0.0
2018-Jul-02 19:00N 46°06' W 122°56'0 0.0
2018-Jul-02 18:30N 46°06' W 122°56'0 0.0
2018-Jul-02 18:00N 46°06' W 122°56'0 0.0
2018-Jul-02 17:30N 46°06' W 122°56'0 0.1
2018-Jul-02 17:00N 46°06' W 122°56'0 0.1
2018-Jul-02 16:30N 46°06' W 122°56'0 0.0
2018-Jul-02 16:00N 46°06' W 122°56'0 0.0
2018-Jul-02 15:30N 46°06' W 122°56'0 0.0
2018-Jul-02 15:00N 46°06' W 122°56'0 0.0
2018-Jul-02 14:30N 46°06' W 122°56'0 0.1
2018-Jul-02 14:00N 46°06' W 122°56'0 0.0
2018-Jul-02 13:16N 46°06' W 122°56'0 0.2
2018-Jul-02 13:00N 46°06' W 122°56'0 0.0
2018-Jul-02 12:30N 46°06' W 122°56'0 0.0
2018-Jul-02 12:00N 46°06' W 122°56'0 0.0
2018-Jul-02 11:30N 46°06' W 122°56'0 0.0
2018-Jul-02 11:00N 46°06' W 122°56'0 0.0
2018-Jul-02 10:30N 46°06' W 122°56'0 0.0
2018-Jul-02 10:00N 46°06' W 122°56'0 0.0
2018-Jul-02 09:30N 46°06' W 122°56'0 0.1
2018-Jul-02 09:00N 46°06' W 122°56'0 0.0
2018-Jul-02 08:30N 46°06' W 122°56'0 0.1
2018-Jul-02 08:00N 46°06' W 122°56'0 0.0
2018-Jul-02 07:30N 46°06' W 122°56'0 0.1
2018-Jul-02 06:59N 46°06' W 122°56'0 0.1
2018-Jul-02 06:30N 46°06' W 122°56'0 0.0
2018-Jul-02 06:00N 46°06' W 122°56'0 0.1
2018-Jul-02 05:30N 46°06' W 122°56'0 0.0
2018-Jul-02 05:00N 46°06' W 122°56'0 0.0
2018-Jul-02 04:30N 46°06' W 122°56'0 0.0
2018-Jul-02 04:00N 46°06' W 122°56'0 0.0
2018-Jul-02 03:30N 46°06' W 122°56'0 0.0
2018-Jul-02 03:00N 46°06' W 122°56'0 0.0
2018-Jul-02 02:30N 46°06' W 122°56'0 0.0
2018-Jul-02 02:00N 46°06' W 122°56'0 0.0
2018-Jul-02 01:30N 46°06' W 122°56'0 0.0
2018-Jul-02 01:00N 46°06' W 122°56'0 0.0
2018-Jul-02 00:30N 46°06' W 122°56'0 0.0
2018-Jul-02 00:00N 46°06' W 122°56'0 0.0
2018-Jul-01 23:30N 46°06' W 122°56'0 0.0
2018-Jul-01 23:00N 46°06' W 122°56'0 0.0
2018-Jul-01 22:30N 46°06' W 122°56'0 0.0
2018-Jul-01 22:00N 46°06' W 122°56'0 0.0
2018-Jul-01 21:30N 46°06' W 122°56'0 0.0
2018-Jul-01 21:00N 46°06' W 122°56'0 0.0
2018-Jul-01 20:30N 46°06' W 122°56'0 0.0
2018-Jul-01 20:00N 46°06' W 122°56'0 0.0
2018-Jul-01 19:19N 46°06' W 122°56'0 0.0
2018-Jul-01 19:00N 46°06' W 122°56'0 0.0
2018-Jul-01 18:25N 46°06' W 122°56'0 0.0
2018-Jul-01 18:00N 46°06' W 122°56'0 0.0
2018-Jul-01 17:30N 46°06' W 122°56'0 0.0
2018-Jul-01 17:00N 46°06' W 122°56'0 0.0
2018-Jul-01 16:30N 46°06' W 122°56'0 0.0
2018-Jul-01 16:00N 46°06' W 122°56'0 0.0
2018-Jul-01 15:30N 46°06' W 122°56'0 0.0
2018-Jul-01 15:00N 46°06' W 122°56'0 0.0
2018-Jul-01 14:30N 46°06' W 122°56'0 0.0
2018-Jul-01 14:00N 46°06' W 122°56'0 0.0
2018-Jul-01 13:26N 46°06' W 122°56'0 0.0
2018-Jul-01 13:00N 46°06' W 122°56'0 0.0
2018-Jul-01 12:30N 46°06' W 122°56'0 0.0
2018-Jul-01 12:01N 46°06' W 122°56'0 0.0
2018-Jul-01 11:30N 46°06' W 122°56'0 0.0
2018-Jul-01 11:00N 46°06' W 122°56'0 0.0
2018-Jul-01 10:30N 46°06' W 122°56'0 0.0
2018-Jul-01 10:00N 46°06' W 122°56'0 0.0
2018-Jul-01 09:30N 46°06' W 122°56'0 0.0
2018-Jul-01 09:01N 46°06' W 122°56'0 0.0
2018-Jul-01 08:30N 46°06' W 122°56'0 0.0
2018-Jul-01 08:00N 46°06' W 122°56'0 0.0
2018-Jul-01 07:30N 46°06' W 122°56'0 0.0
2018-Jul-01 06:59N 46°06' W 122°56'0 0.0
2018-Jul-01 06:30N 46°06' W 122°56'0 0.0
2018-Jul-01 06:00N 46°06' W 122°56'0 0.0
2018-Jul-01 05:22N 46°06' W 122°56'0 0.0
2018-Jul-01 04:54N 46°06' W 122°56'0 0.0
2018-Jul-01 04:30N 46°06' W 122°56'0 0.0
2018-Jul-01 04:00N 46°06' W 122°56'0 0.0
2018-Jul-01 03:30N 46°06' W 122°56'0 0.0
2018-Jul-01 03:00N 46°06' W 122°56'0 0.0
2018-Jul-01 02:27N 46°06' W 122°56'0 0.0
2018-Jul-01 02:00N 46°06' W 122°56'0 0.0
2018-Jul-01 01:30N 46°06' W 122°56'0 0.0
2018-Jul-01 01:00N 46°06' W 122°56'0 0.0
2018-Jul-01 00:30N 46°06' W 122°56'0 0.0
2018-Jun-30 23:47N 46°06' W 122°56'0 0.0
2018-Jun-30 23:31N 46°06' W 122°56'0 0.0
2018-Jun-30 23:00N 46°06' W 122°56'0 0.0
2018-Jun-30 22:30N 46°06' W 122°56'0 0.0
2018-Jun-30 22:00N 46°06' W 122°56'0 0.0
2018-Jun-30 21:30N 46°06' W 122°56'0 0.0
2018-Jun-30 21:00N 46°06' W 122°56'0 0.0
2018-Jun-30 20:31N 46°06' W 122°56'0 0.0
2018-Jun-30 20:00N 46°06' W 122°56'0 0.0
2018-Jun-30 19:29N 46°06' W 122°56'0 0.0
2018-Jun-30 19:00N 46°06' W 122°56'0 0.0
2018-Jun-30 18:30N 46°06' W 122°56'0 0.0
2018-Jun-30 18:00N 46°06' W 122°56'0 0.0
2018-Jun-30 17:30N 46°06' W 122°56'0 0.0
2018-Jun-30 17:00N 46°06' W 122°56'0 0.0
2018-Jun-30 16:30N 46°06' W 122°56'0 0.0
2018-Jun-30 16:00N 46°06' W 122°56'0 0.0
2018-Jun-30 15:30N 46°06' W 122°56'0 0.0
2018-Jun-30 15:00N 46°06' W 122°56'0 0.0
2018-Jun-30 14:30N 46°06' W 122°56'0 0.0
2018-Jun-30 14:00N 46°06' W 122°56'0 0.0
2018-Jun-30 13:30N 46°06' W 122°56'0 0.1
2018-Jun-30 13:00N 46°06' W 122°56'1 2.0
2018-Jun-30 12:30N 46°06' W 122°58'4 7.6
2018-Jun-30 12:00N 46°09' W 123°02'611.2
2018-Jun-30 11:30N 46°11' W 123°09'611.9
2018-Jun-30 11:00N 46°09' W 123°17'510.5
2018-Jun-30 10:30N 46°10' W 123°24'611.3
2018-Jun-30 10:00N 46°15' W 123°27'611.4
2018-Jun-30 09:30N 46°15' W 123°35'611.0
2018-Jun-30 09:00N 46°14' W 123°43'3 6.7
2018-Jun-30 08:31N 46°13' W 123°47'0 0.1
2018-Jun-30 08:00N 46°13' W 123°47'0 0.0
2018-Jun-30 07:30N 46°13' W 123°47'0 0.0
2018-Jun-30 06:57N 46°13' W 123°47'0 0.1
2018-Jun-30 06:30N 46°13' W 123°47'0 0.0
2018-Jun-30 06:00N 46°13' W 123°47'0 0.2
2018-Jun-30 05:27N 46°13' W 123°47'0 0.1
2018-Jun-30 05:00N 46°13' W 123°48'0 0.1
2018-Jun-30 04:30N 46°13' W 123°48'0 0.0
2018-Jun-30 04:00N 46°13' W 123°48'0 0.0
2018-Jun-30 03:30N 46°13' W 123°48'0 0.0
2018-Jun-30 02:48N 46°13' W 123°48'0 0.0
2018-Jun-30 02:30N 46°13' W 123°48'0 0.0
2018-Jun-30 02:00N 46°13' W 123°48'0 0.0
2018-Jun-30 01:09N 46°13' W 123°48'0 0.1
2018-Jun-30 00:42N 46°13' W 123°48'0 0.3
2018-Jun-30 00:24N 46°13' W 123°47'0 0.2
2018-Jun-30 00:00N 46°13' W 123°47'0 0.2
2018-Jun-29 23:30N 46°13' W 123°47'0 0.0
2018-Jun-29 22:57N 46°13' W 123°47'0 0.1
2018-Jun-29 22:21N 46°13' W 123°47'0 0.0
2018-Jun-29 22:00N 46°13' W 123°47'0 0.0
2018-Jun-29 21:30N 46°13' W 123°47'0 0.0
2018-Jun-29 20:57N 46°13' W 123°47'0 0.0
2018-Jun-29 20:30N 46°13' W 123°47'0 0.0
2018-Jun-29 20:00N 46°13' W 123°47'0 0.0
2018-Jun-29 19:27N 46°13' W 123°47'0 0.1
2018-Jun-29 19:00N 46°13' W 123°47'0 0.3
2018-Jun-29 18:30N 46°13' W 123°47'0 0.2
2018-Jun-29 18:00N 46°13' W 123°48'0 0.0
2018-Jun-29 17:15N 46°13' W 123°48'0 0.0
2018-Jun-29 16:48N 46°13' W 123°48'0 0.0
2018-Jun-29 16:30N 46°13' W 123°48'0 0.0
2018-Jun-29 15:45N 46°13' W 123°48'0 0.0
2018-Jun-29 15:30N 46°13' W 123°48'0 0.0
2018-Jun-29 14:57N 46°13' W 123°48'0 0.1
2018-Jun-29 14:30N 46°13' W 123°48'0 0.0
2018-Jun-29 14:00N 46°13' W 123°48'0 0.0
2018-Jun-29 13:30N 46°13' W 123°48'0 0.0
2018-Jun-29 13:00N 46°13' W 123°48'0 0.0
2018-Jun-29 12:30N 46°13' W 123°48'0 0.0
2018-Jun-29 12:00N 46°13' W 123°48'0 0.0
2018-Jun-29 11:30N 46°13' W 123°48'0 0.0
2018-Jun-29 11:00N 46°13' W 123°48'0 0.1
2018-Jun-29 10:30N 46°13' W 123°48'0 0.4
2018-Jun-29 10:00N 46°13' W 123°47'0 0.1
2018-Jun-29 09:30N 46°13' W 123°47'0 0.0
2018-Jun-29 09:00N 46°13' W 123°47'0 0.0
2018-Jun-29 08:30N 46°13' W 123°47'0 0.1
2018-Jun-29 07:39N 46°13' W 123°47'0 0.0
2018-Jun-29 07:30N 46°13' W 123°47'0 0.0
2018-Jun-29 06:57N 46°13' W 123°47'0 0.1
2018-Jun-29 06:30N 46°13' W 123°47'0 0.1
2018-Jun-29 06:00N 46°13' W 123°47'0 0.1
2018-Jun-29 05:30N 46°13' W 123°47'0 0.2
2018-Jun-29 05:00N 46°13' W 123°47'0 0.2
2018-Jun-29 04:30N 46°13' W 123°48'0 0.1
2018-Jun-29 04:00N 46°13' W 123°48'0 0.0
2018-Jun-29 03:30N 46°13' W 123°48'0 0.0
2018-Jun-29 03:00N 46°13' W 123°48'0 0.0
2018-Jun-29 02:30N 46°13' W 123°48'0 0.0
2018-Jun-29 01:57N 46°13' W 123°48'0 0.0
2018-Jun-29 01:30N 46°13' W 123°48'0 0.0
2018-Jun-29 01:00N 46°13' W 123°48'0 0.0
2018-Jun-29 00:30N 46°13' W 123°48'0 0.0
2018-Jun-29 00:00N 46°13' W 123°48'0 0.2
2018-Jun-28 23:30N 46°13' W 123°47'0 0.2
2018-Jun-28 23:00N 46°13' W 123°47'0 0.1
2018-Jun-28 22:30N 46°13' W 123°47'0 0.1
2018-Jun-28 22:00N 46°13' W 123°47'0 0.1
2018-Jun-28 21:30N 46°13' W 123°47'0 0.0
2018-Jun-28 21:00N 46°13' W 123°47'0 0.0
2018-Jun-28 20:30N 46°13' W 123°47'0 0.0
2018-Jun-28 20:00N 46°13' W 123°47'0 0.0
2018-Jun-28 19:12N 46°13' W 123°47'0 0.0
2018-Jun-28 19:00N 46°13' W 123°47'0 0.0
2018-Jun-28 18:21N 46°13' W 123°47'0 0.1
2018-Jun-28 17:57N 46°13' W 123°47'0 0.4
2018-Jun-28 17:27N 46°13' W 123°47'0 0.1
2018-Jun-28 17:00N 46°13' W 123°48'0 0.1
2018-Jun-28 16:30N 46°13' W 123°48'0 0.0
2018-Jun-28 16:00N 46°13' W 123°48'0 0.0
2018-Jun-28 15:30N 46°13' W 123°48'0 0.0
2018-Jun-28 14:57N 46°13' W 123°48'0 0.0
2018-Jun-28 14:30N 46°13' W 123°48'0 0.0
2018-Jun-28 14:00N 46°13' W 123°48'0 0.0
2018-Jun-28 13:30N 46°13' W 123°48'0 0.0
2018-Jun-28 13:00N 46°13' W 123°48'0 0.0
2018-Jun-28 12:30N 46°13' W 123°48'0 0.0
2018-Jun-28 12:00N 46°13' W 123°48'0 0.0
2018-Jun-28 11:27N 46°13' W 123°48'0 0.0
2018-Jun-28 11:00N 46°13' W 123°48'0 0.1
2018-Jun-28 10:30N 46°13' W 123°48'0 0.1
2018-Jun-28 10:00N 46°13' W 123°48'0 0.3
2018-Jun-28 09:27N 46°13' W 123°47'0 0.2
2018-Jun-28 09:00N 46°13' W 123°47'0 0.1
2018-Jun-28 08:27N 46°13' W 123°47'0 0.1
2018-Jun-28 08:00N 46°13' W 123°47'0 0.0
2018-Jun-28 07:18N 46°13' W 123°47'0 0.0
2018-Jun-28 06:57N 46°13' W 123°47'0 0.0
2018-Jun-28 06:30N 46°13' W 123°47'0 0.0
2018-Jun-28 06:00N 46°13' W 123°47'0 0.0
2018-Jun-28 05:24N 46°13' W 123°47'0 0.0
2018-Jun-28 05:00N 46°13' W 123°47'0 0.2
2018-Jun-28 04:30N 46°13' W 123°47'0 0.2
2018-Jun-28 04:00N 46°13' W 123°47'0 0.1
2018-Jun-28 03:30N 46°13' W 123°48'0 0.1
2018-Jun-28 02:57N 46°13' W 123°48'0 0.0
2018-Jun-28 02:30N 46°13' W 123°48'0 0.0
2018-Jun-28 02:00N 46°13' W 123°48'0 0.0
2018-Jun-28 01:30N 46°13' W 123°48'0 0.0
2018-Jun-28 00:51N 46°13' W 123°48'0 0.0
2018-Jun-28 00:30N 46°13' W 123°48'0 0.0
2018-Jun-28 00:00N 46°13' W 123°48'0 0.0
2018-Jun-27 23:27N 46°13' W 123°48'0 0.0
2018-Jun-27 23:00N 46°13' W 123°48'0 0.2
2018-Jun-27 22:27N 46°13' W 123°47'0 0.1
2018-Jun-27 22:00N 46°13' W 123°47'0 0.2
2018-Jun-27 21:27N 46°13' W 123°47'0 0.0
2018-Jun-27 21:00N 46°13' W 123°47'0 0.1
2018-Jun-27 20:27N 46°13' W 123°47'0 0.0
2018-Jun-27 20:00N 46°13' W 123°47'0 0.0
2018-Jun-27 19:30N 46°13' W 123°47'0 0.0
2018-Jun-27 19:00N 46°13' W 123°47'0 0.0
2018-Jun-27 18:30N 46°13' W 123°47'0 0.0
2018-Jun-27 18:00N 46°13' W 123°47'0 0.4
2018-Jun-27 17:30N 46°13' W 123°48'0 0.2
2018-Jun-27 17:00N 46°13' W 123°48'0 0.1
2018-Jun-27 16:12N 46°13' W 123°48'0 0.0
2018-Jun-27 16:00N 46°13' W 123°48'0 0.0
2018-Jun-27 15:15N 46°13' W 123°48'0 0.0
2018-Jun-27 15:00N 46°13' W 123°48'0 0.0
2018-Jun-27 14:27N 46°13' W 123°48'0 0.0
2018-Jun-27 14:00N 46°13' W 123°48'0 0.0
2018-Jun-27 13:30N 46°13' W 123°48'0 0.0
2018-Jun-27 13:00N 46°13' W 123°48'0 0.0
2018-Jun-27 12:30N 46°13' W 123°48'0 0.0
2018-Jun-27 11:57N 46°13' W 123°48'0 0.0
2018-Jun-27 11:30N 46°13' W 123°48'0 0.0
2018-Jun-27 10:57N 46°13' W 123°48'0 0.0
2018-Jun-27 10:30N 46°13' W 123°48'0 0.0
2018-Jun-27 10:00N 46°13' W 123°48'0 0.1
2018-Jun-27 09:27N 46°13' W 123°48'0 0.0
2018-Jun-27 08:57N 46°13' W 123°48'0 0.3
2018-Jun-27 08:30N 46°13' W 123°47'0 0.2
2018-Jun-27 08:00N 46°13' W 123°47'0 0.1
2018-Jun-27 07:30N 46°13' W 123°47'0 0.0
2018-Jun-27 06:54N 46°13' W 123°47'0 0.0
2018-Jun-27 06:30N 46°13' W 123°47'0 0.1
2018-Jun-27 05:42N 46°13' W 123°47'0 0.2
2018-Jun-27 05:30N 46°13' W 123°47'0 0.1
2018-Jun-27 05:00N 46°13' W 123°47'0 0.0
2018-Jun-27 04:30N 46°13' W 123°47'0 0.2
2018-Jun-27 03:48N 46°13' W 123°47'0 0.1
2018-Jun-27 03:30N 46°13' W 123°47'0 0.1
2018-Jun-27 03:00N 46°13' W 123°48'0 0.0
2018-Jun-27 02:30N 46°13' W 123°48'0 0.1
2018-Jun-27 02:00N 46°13' W 123°48'0 0.0
2018-Jun-27 01:30N 46°13' W 123°48'0 0.0
2018-Jun-27 01:00N 46°13' W 123°48'0 0.1
2018-Jun-27 00:18N 46°13' W 123°48'0 0.1
2018-Jun-27 00:00N 46°13' W 123°48'0 0.0
2018-Jun-26 23:30N 46°13' W 123°48'0 0.1
2018-Jun-26 23:00N 46°13' W 123°48'0 0.0
2018-Jun-26 22:30N 46°13' W 123°48'0 0.2
2018-Jun-26 21:57N 46°13' W 123°47'0 0.2
2018-Jun-26 21:24N 46°13' W 123°47'0 0.1
2018-Jun-26 20:54N 46°13' W 123°47'0 0.1
2018-Jun-26 20:30N 46°13' W 123°47'0 0.0
2018-Jun-26 20:00N 46°13' W 123°47'0 0.0
2018-Jun-26 19:30N 46°13' W 123°47'0 0.0
2018-Jun-26 19:00N 46°13' W 123°47'0 0.0
2018-Jun-26 18:27N 46°13' W 123°47'0 0.0
2018-Jun-26 17:54N 46°13' W 123°47'0 0.1
2018-Jun-26 17:30N 46°13' W 123°47'0 0.2
2018-Jun-26 16:30N 46°13' W 123°48'0 0.1
2018-Jun-26 15:42N 46°13' W 123°48'0 0.0
2018-Jun-26 15:30N 46°13' W 123°48'0 0.0
2018-Jun-26 14:51N 46°13' W 123°48'0 0.0
2018-Jun-26 14:28N 46°13' W 123°48'0 0.0
2018-Jun-26 14:00N 46°13' W 123°48'0 0.0
2018-Jun-26 13:30N 46°13' W 123°48'0 0.0
2018-Jun-26 13:00N 46°13' W 123°48'0 0.1
2018-Jun-26 12:30N 46°13' W 123°48'0 0.0
2018-Jun-26 12:00N 46°13' W 123°48'0 0.0
2018-Jun-26 11:27N 46°13' W 123°48'0 0.0
2018-Jun-26 11:00N 46°13' W 123°48'0 0.0
2018-Jun-26 10:27N 46°13' W 123°48'0 0.0
2018-Jun-26 10:00N 46°13' W 123°48'0 0.0
2018-Jun-26 09:30N 46°13' W 123°48'0 0.0
2018-Jun-26 09:00N 46°13' W 123°48'0 0.1
2018-Jun-26 08:30N 46°13' W 123°48'0 0.4
2018-Jun-26 08:00N 46°13' W 123°47'0 0.2
2018-Jun-26 07:30N 46°13' W 123°47'0 0.0
2018-Jun-26 06:57N 46°13' W 123°47'0 0.1
2018-Jun-26 06:30N 46°13' W 123°47'0 0.0
2018-Jun-26 05:54N 46°13' W 123°47'0 0.0
2018-Jun-26 05:27N 46°13' W 123°47'0 0.0
2018-Jun-26 05:00N 46°13' W 123°47'0 0.0
2018-Jun-26 04:30N 46°13' W 123°47'0 0.1
2018-Jun-26 04:00N 46°13' W 123°47'0 0.0
2018-Jun-26 03:24N 46°13' W 123°47'0 0.3
2018-Jun-26 03:00N 46°13' W 123°47'0 0.2
2018-Jun-26 02:27N 46°13' W 123°47'0 0.1
2018-Jun-26 01:57N 46°13' W 123°48'0 0.1
2018-Jun-26 01:30N 46°13' W 123°48'0 0.0
2018-Jun-26 01:00N 46°13' W 123°48'0 0.0
2018-Jun-26 00:30N 46°13' W 123°48'0 0.0
2018-Jun-26 00:00N 46°13' W 123°48'0 0.0
2018-Jun-25 23:27N 46°13' W 123°48'0 0.0
2018-Jun-25 23:00N 46°13' W 123°48'0 0.1
2018-Jun-25 22:30N 46°13' W 123°48'0 0.0
2018-Jun-25 22:00N 46°13' W 123°48'0 0.3
2018-Jun-25 21:24N 46°13' W 123°47'0 0.2
2018-Jun-25 21:00N 46°13' W 123°47'0 0.1
2018-Jun-25 19:48N 46°13' W 123°47'0 0.0
2018-Jun-25 19:18N 46°13' W 123°47'0 0.0
2018-Jun-25 19:00N 46°13' W 123°47'0 0.0
2018-Jun-25 18:30N 46°13' W 123°47'0 0.0
2018-Jun-25 18:00N 46°13' W 123°47'0 0.0
2018-Jun-25 17:30N 46°13' W 123°47'0 0.0
2018-Jun-25 17:00N 46°13' W 123°47'0 0.0
2018-Jun-25 16:30N 46°13' W 123°47'0 0.1
2018-Jun-25 15:57N 46°13' W 123°47'0 0.2
2018-Jun-25 15:00N 46°13' W 123°48'0 0.0
2018-Jun-25 14:30N 46°13' W 123°48'0 0.1
2018-Jun-25 14:00N 46°13' W 123°48'0 0.0
2018-Jun-25 13:30N 46°13' W 123°48'0 0.0
2018-Jun-25 13:00N 46°13' W 123°48'0 0.0
2018-Jun-25 12:30N 46°13' W 123°48'0 0.0
2018-Jun-25 12:00N 46°13' W 123°48'0 0.0
2018-Jun-25 11:30N 46°13' W 123°48'0 0.0
2018-Jun-25 10:57N 46°13' W 123°48'0 0.0
2018-Jun-25 10:30N 46°13' W 123°48'0 0.0
2018-Jun-25 10:00N 46°13' W 123°48'0 0.0
2018-Jun-25 09:27N 46°13' W 123°48'0 0.0
2018-Jun-25 09:00N 46°13' W 123°48'0 0.1
2018-Jun-25 08:30N 46°13' W 123°48'0 0.1
2018-Jun-25 08:00N 46°13' W 123°48'0 0.3
2018-Jun-25 07:27N 46°13' W 123°47'0 0.3
2018-Jun-25 06:57N 46°13' W 123°47'0 0.1
2018-Jun-25 06:30N 46°13' W 123°47'0 0.1
2018-Jun-25 05:54N 46°13' W 123°47'0 0.1
2018-Jun-25 05:30N 46°13' W 123°47'0 0.1
2018-Jun-25 05:00N 46°13' W 123°47'0 0.1
2018-Jun-25 04:30N 46°13' W 123°47'0 0.0
2018-Jun-25 03:57N 46°13' W 123°47'0 0.1
2018-Jun-25 03:30N 46°13' W 123°47'0 0.1
2018-Jun-25 03:00N 46°13' W 123°47'0 0.1
2018-Jun-25 02:30N 46°13' W 123°47'0 0.3
2018-Jun-25 02:00N 46°13' W 123°47'0 0.2
2018-Jun-25 01:15N 46°13' W 123°48'0 0.0
2018-Jun-25 00:57N 46°13' W 123°48'0 0.0
2018-Jun-25 00:30N 46°13' W 123°48'0 0.0
2018-Jun-25 00:00N 46°13' W 123°48'0 0.1
2018-Jun-24 23:30N 46°13' W 123°48'0 0.1
2018-Jun-24 23:00N 46°13' W 123°48'0 0.1
2018-Jun-24 22:30N 46°13' W 123°48'0 0.0
2018-Jun-24 21:57N 46°13' W 123°48'0 0.0
2018-Jun-24 21:27N 46°13' W 123°48'0 0.0
2018-Jun-24 21:00N 46°13' W 123°48'0 0.3
2018-Jun-24 20:30N 46°13' W 123°47'0 0.3
2018-Jun-24 20:00N 46°13' W 123°47'0 0.1
2018-Jun-24 19:30N 46°13' W 123°47'0 0.0
2018-Jun-24 19:00N 46°13' W 123°47'0 0.0
2018-Jun-24 18:30N 46°13' W 123°47'0 0.0
2018-Jun-24 18:00N 46°13' W 123°47'0 0.0
2018-Jun-24 17:30N 46°13' W 123°47'0 0.0
2018-Jun-24 17:00N 46°13' W 123°47'0 0.1
2018-Jun-24 16:30N 46°13' W 123°47'0 0.3
2018-Jun-24 15:57N 46°13' W 123°47'0 0.1
2018-Jun-24 15:30N 46°13' W 123°48'0 0.0
2018-Jun-24 15:00N 46°13' W 123°48'0 0.1
2018-Jun-24 14:30N 46°13' W 123°48'0 0.0
2018-Jun-24 14:00N 46°13' W 123°48'0 0.0
2018-Jun-24 13:30N 46°13' W 123°48'0 0.0
2018-Jun-24 13:00N 46°13' W 123°48'0 0.0
2018-Jun-24 12:30N 46°13' W 123°48'0 0.0
2018-Jun-24 12:00N 46°13' W 123°48'0 0.0
2018-Jun-24 11:30N 46°13' W 123°48'0 0.0
2018-Jun-24 10:57N 46°13' W 123°48'0 0.1
2018-Jun-24 10:30N 46°13' W 123°48'0 0.0
2018-Jun-24 09:57N 46°13' W 123°48'0 0.0
2018-Jun-24 09:30N 46°13' W 123°48'0 0.0
2018-Jun-24 09:00N 46°13' W 123°48'0 0.0
2018-Jun-24 08:30N 46°13' W 123°48'0 0.0
2018-Jun-24 07:57N 46°13' W 123°48'0 0.0
2018-Jun-24 07:30N 46°13' W 123°48'0 0.2
2018-Jun-24 06:42N 46°13' W 123°47'0 0.2
2018-Jun-24 06:30N 46°13' W 123°47'0 0.3
2018-Jun-24 06:00N 46°13' W 123°47'0 0.1
2018-Jun-24 05:27N 46°13' W 123°47'0 0.1
2018-Jun-24 05:00N 46°13' W 123°47'0 0.0
2018-Jun-24 04:27N 46°13' W 123°47'0 0.0
2018-Jun-24 04:00N 46°13' W 123°47'0 0.0
2018-Jun-24 03:27N 46°13' W 123°47'0 0.0
2018-Jun-24 03:00N 46°13' W 123°47'0 0.0
2018-Jun-24 02:12N 46°13' W 123°47'0 0.0
2018-Jun-24 02:00N 46°13' W 123°47'0 0.1
2018-Jun-24 01:12N 46°13' W 123°47'0 0.4
2018-Jun-24 01:00N 46°13' W 123°47'0 0.2
2018-Jun-24 00:30N 46°13' W 123°48'0 0.1
2018-Jun-24 00:00N 46°13' W 123°48'0 0.0
2018-Jun-23 23:30N 46°13' W 123°48'0 0.0
2018-Jun-23 22:48N 46°13' W 123°48'0 0.0
2018-Jun-23 22:30N 46°13' W 123°48'0 0.0
2018-Jun-23 22:00N 46°13' W 123°48'0 0.0
2018-Jun-23 21:30N 46°13' W 123°48'0 0.0
2018-Jun-23 20:54N 46°13' W 123°48'0 0.0
2018-Jun-23 20:30N 46°13' W 123°48'  

Dump ship's entire track history